Khoy Airport


Codes: OITK/KHY
Name: Khoy Airport
City: Khoy
Country: Iran
Elevation: 3981 ft.
Wikipedia:

Photos at Khoy Airport


   Photos courtesy of SpottingLog. You can add your own sightings and photos by signing up for a free trial today.



No photos found.

Weather at Khoy Airport


Time (UTC)DescriptionTempratureWindCloud coverageVisibilityPressureHumidity
13-Jun-2024 03:00Few Clouds17°C2 mph, N20%10000m1017hPa67%
13-Jun-2024 06:00Few Clouds20°C9 mph, NE14%10000m1016hPa56%
13-Jun-2024 09:00Clear Sky25°C11 mph, NE7%10000m1013hPa40%
13-Jun-2024 12:00Light Rain30°C9 mph, N5%10000m1010hPa23%
13-Jun-2024 15:00Overcast Clouds24°C9 mph, S98%10000m1011hPa42%
13-Jun-2024 18:00Scattered Clouds21°C2 mph, S49%10000m1012hPa50%
13-Jun-2024 21:00Clear Sky21°C2 mph, SW1%10000m1011hPa46%
14-Jun-2024 00:00Clear Sky20°C2 mph, W1%10000m1011hPa49%
14-Jun-2024 03:00Clear Sky21°C4 mph, NE0%10000m1012hPa51%
14-Jun-2024 06:00Clear Sky25°C11 mph, NE0%10000m1012hPa37%
14-Jun-2024 09:00Clear Sky28°C11 mph, NE0%10000m1010hPa30%
14-Jun-2024 12:00Clear Sky30°C11 mph, N1%10000m1008hPa25%
14-Jun-2024 15:00Clear Sky29°C11 mph, N0%10000m1007hPa25%
14-Jun-2024 18:00Clear Sky24°C7 mph, N1%10000m1009hPa38%
14-Jun-2024 21:00Clear Sky21°C2 mph, SW1%10000m1010hPa49%
15-Jun-2024 00:00Clear Sky20°C2 mph, NE3%10000m1010hPa57%
15-Jun-2024 03:00Clear Sky21°C2 mph, N1%10000m1011hPa55%
15-Jun-2024 06:00Clear Sky25°C4 mph, NE0%10000m1010hPa43%
15-Jun-2024 09:00Clear Sky28°C4 mph, N0%10000m1007hPa32%
15-Jun-2024 12:00Clear Sky31°C2 mph, SW0%10000m1005hPa25%
15-Jun-2024 15:00Clear Sky30°C4 mph, S0%10000m1005hPa22%
15-Jun-2024 18:00Light Rain24°C2 mph, W1%10000m1007hPa38%
15-Jun-2024 21:00Scattered Clouds23°C0 mph, SW40%10000m1008hPa44%
16-Jun-2024 00:00Light Rain22°C0 mph, NW69%10000m1008hPa51%
16-Jun-2024 03:00Overcast Clouds24°C2 mph, N96%10000m1009hPa46%
16-Jun-2024 06:00Scattered Clouds27°C2 mph, NE48%10000m1008hPa37%
16-Jun-2024 09:00Few Clouds31°C0 mph, SE14%10000m1006hPa28%
16-Jun-2024 12:00Light Rain26°C25 mph, SW25%10000m1009hPa39%
16-Jun-2024 15:00Overcast Clouds23°C11 mph, NE100%10000m1013hPa45%
16-Jun-2024 18:00Overcast Clouds20°C4 mph, N100%10000m1014hPa62%
16-Jun-2024 21:00Overcast Clouds19°C2 mph, SW91%10000m1014hPa66%
17-Jun-2024 00:00Broken Clouds18°C2 mph, NE67%10000m1014hPa68%
17-Jun-2024 03:00Few Clouds19°C2 mph, NW12%10000m1015hPa62%
17-Jun-2024 06:00Clear Sky24°C4 mph, N6%10000m1014hPa44%
17-Jun-2024 09:00Clear Sky29°C4 mph, N0%10000m1012hPa31%
17-Jun-2024 12:00Clear Sky32°C4 mph, N0%10000m1009hPa24%
17-Jun-2024 15:00Clear Sky31°C7 mph, N0%10000m1009hPa25%
17-Jun-2024 18:00Clear Sky26°C4 mph, NW3%10000m1011hPa36%
17-Jun-2024 21:00Overcast Clouds26°C4 mph, N94%10000m1012hPa41%
18-Jun-2024 00:00Broken Clouds22°C2 mph, N64%10000m1012hPa51%